createdAt,value
2017-09-25T00:02:02.814Z,56.77
2017-09-25T00:06:05.782Z,56.74
2017-09-25T00:10:08.417Z,56.73
2017-09-25T00:14:11.356Z,56.73
2017-09-25T00:18:14.039Z,56.76
2017-09-25T00:22:16.963Z,56.74
2017-09-25T00:26:19.580Z,56.74
2017-09-25T00:30:22.513Z,56.74
2017-09-25T00:34:25.385Z,56.72
2017-09-25T00:38:28.431Z,56.73
2017-09-25T00:42:31.059Z,56.76
2017-09-25T00:46:34.232Z,56.74
2017-09-25T00:50:37.095Z,56.69
2017-09-25T00:54:40.124Z,56.73
2017-09-25T00:58:42.738Z,56.71
2017-09-25T01:02:45.675Z,56.71
2017-09-25T01:06:48.298Z,56.68
2017-09-25T01:10:51.253Z,56.65
2017-09-25T01:14:54.026Z,56.68
2017-09-25T01:18:56.938Z,56.67
2017-09-25T01:22:59.563Z,56.67
2017-09-25T01:27:02.534Z,56.66
2017-09-25T01:31:06.059Z,56.68
2017-09-25T01:35:09.029Z,56.67
2017-09-25T01:39:11.645Z,56.64
2017-09-25T01:43:14.620Z,56.66
2017-09-25T01:47:17.243Z,56.68
2017-09-25T01:51:20.202Z,56.65
2017-09-25T01:55:22.813Z,56.63
2017-09-25T01:59:25.778Z,56.62
2017-09-25T02:03:28.401Z,56.63
2017-09-25T02:07:31.391Z,56.61
2017-09-25T02:11:34.011Z,56.61
2017-09-25T02:15:36.941Z,56.61
2017-09-25T02:19:39.562Z,56.60
2017-09-25T02:23:42.731Z,56.58
2017-09-25T02:27:45.349Z,56.57
2017-09-25T02:31:48.320Z,56.58
2017-09-25T02:35:51.059Z,56.59
2017-09-25T02:39:54.051Z,56.56
2017-09-25T02:43:56.667Z,56.57
2017-09-25T02:47:59.711Z,56.57
2017-09-25T02:52:02.332Z,56.56
2017-09-25T02:56:05.379Z,56.54
2017-09-25T03:00:08.051Z,56.56
2017-09-25T03:04:11.072Z,56.50
2017-09-25T03:08:13.662Z,56.51
2017-09-25T03:12:16.741Z,56.51
2017-09-25T03:16:19.363Z,56.50
2017-09-25T03:20:22.317Z,56.50
2017-09-25T03:24:24.935Z,56.45
2017-09-25T03:28:27.901Z,56.47
2017-09-25T03:32:30.793Z,56.47
2017-09-25T03:36:33.807Z,56.47
2017-09-25T03:40:36.438Z,56.41
2017-09-25T03:44:39.386Z,56.36
2017-09-25T03:48:42.003Z,56.69
2017-09-25T03:52:44.954Z,56.58
2017-09-25T03:56:47.570Z,56.55
2017-09-25T04:00:50.646Z,56.51
2017-09-25T04:08:55.610Z,56.44
2017-09-25T04:12:58.230Z,56.46
2017-09-25T04:17:01.209Z,56.46
2017-09-25T04:21:03.846Z,56.44
2017-09-25T04:25:06.782Z,56.43
2017-09-25T04:29:09.414Z,56.39
2017-09-25T04:33:12.353Z,56.38
2017-09-25T04:37:14.966Z,56.37
2017-09-25T04:41:17.946Z,56.36
2017-09-25T04:45:20.655Z,56.36
2017-09-25T04:49:23.734Z,56.36
2017-09-25T04:53:26.358Z,56.30
2017-09-25T04:57:29.336Z,56.32
2017-09-25T05:01:31.963Z,56.30
2017-09-25T05:05:34.891Z,56.31
2017-09-25T05:09:37.521Z,56.32
2017-09-25T05:13:40.496Z,56.29
2017-09-25T05:17:43.315Z,56.28
2017-09-25T05:21:46.257Z,56.27
2017-09-25T05:25:48.886Z,56.26
2017-09-25T05:29:51.850Z,56.27
2017-09-25T05:33:54.467Z,56.25
2017-09-25T05:37:57.437Z,56.23
2017-09-25T05:42:00.062Z,56.23
2017-09-25T05:46:03.007Z,56.21
2017-09-25T05:50:05.618Z,56.20
2017-09-25T05:54:08.599Z,56.15
2017-09-25T05:58:11.218Z,56.09
2017-09-25T06:02:14.173Z,56.07
2017-09-25T06:06:16.790Z,56.02
2017-09-25T06:10:19.762Z,56.02
2017-09-25T06:14:22.378Z,55.96
2017-09-25T06:18:25.342Z,55.99
2017-09-25T06:22:27.958Z,55.96
2017-09-25T06:26:30.911Z,56.00
2017-09-25T06:30:33.573Z,55.98
2017-09-25T06:34:36.624Z,56.01
2017-09-25T06:38:39.350Z,55.96
2017-09-25T06:42:42.294Z,55.94
2017-09-25T06:46:44.914Z,55.93
2017-09-25T06:50:47.917Z,55.91
2017-09-25T06:54:50.538Z,56.01
2017-09-25T06:58:53.491Z,55.98
2017-09-25T07:02:56.108Z,55.98
2017-09-25T07:06:59.072Z,56.04
2017-09-25T07:11:01.689Z,56.00
2017-09-25T07:15:04.735Z,56.02
2017-09-25T07:19:07.394Z,56.03
2017-09-25T07:23:10.322Z,55.99
2017-09-25T07:27:12.939Z,56.02
2017-09-25T07:31:15.905Z,56.00
2017-09-25T07:35:18.521Z,56.01
2017-09-25T07:39:21.438Z,56.08
2017-09-25T07:43:24.086Z,56.07
2017-09-25T07:47:27.004Z,56.05
2017-09-25T07:51:29.633Z,56.02
2017-09-25T07:55:32.650Z,56.02
2017-09-25T07:59:35.270Z,56.07
2017-09-25T08:03:38.230Z,56.11
2017-09-25T08:07:40.855Z,56.06
2017-09-25T08:11:43.853Z,56.04
2017-09-25T08:15:46.475Z,56.03
2017-09-25T08:19:49.492Z,56.00
2017-09-25T08:23:52.117Z,56.37
2017-09-25T08:27:55.077Z,56.64
2017-09-25T08:31:57.702Z,56.52
2017-09-25T08:36:00.670Z,56.55
2017-09-25T08:40:03.298Z,56.97
2017-09-25T08:44:06.252Z,56.88
2017-09-25T08:48:08.881Z,56.74
2017-09-25T08:52:11.825Z,56.75
2017-09-25T08:56:14.449Z,56.59
2017-09-25T09:00:17.411Z,56.54
2017-09-25T09:04:20.104Z,56.62
2017-09-25T09:08:34.870Z,56.67
2017-09-25T09:12:37.494Z,56.84
2017-09-25T09:16:40.559Z,56.63
2017-09-25T09:20:43.191Z,56.66
2017-09-25T09:24:46.143Z,56.75
2017-09-25T09:28:48.770Z,56.76
2017-09-25T09:32:51.717Z,56.70
2017-09-25T09:36:54.338Z,56.68
2017-09-25T09:40:57.311Z,56.80
2017-09-25T09:44:59.944Z,56.87
2017-09-25T09:49:02.886Z,56.81
2017-09-25T09:53:05.610Z,56.85
2017-09-25T09:57:08.566Z,56.88
2017-09-25T10:01:11.206Z,56.80
2017-09-25T10:05:14.155Z,56.64
2017-09-25T10:09:16.761Z,56.63
2017-09-25T10:13:19.728Z,56.61
2017-09-25T10:17:22.350Z,56.64
2017-09-25T10:21:25.319Z,56.79
2017-09-25T10:25:28.085Z,56.85
2017-09-25T10:29:31.067Z,56.94
2017-09-25T10:33:33.700Z,56.96
2017-09-25T10:37:36.628Z,57.00
2017-09-25T10:41:39.256Z,56.99
2017-09-25T10:45:42.279Z,56.99
2017-09-25T10:49:44.911Z,56.96
2017-09-25T10:53:47.991Z,56.93
2017-09-25T10:57:50.603Z,56.85
2017-09-25T11:01:53.541Z,56.80
2017-09-25T11:05:56.154Z,56.73
2017-09-25T11:09:59.114Z,56.63
2017-09-25T11:14:01.731Z,56.53
2017-09-25T11:18:04.705Z,56.52
2017-09-25T11:22:07.332Z,56.59
2017-09-25T11:26:10.391Z,56.76
2017-09-25T11:30:13.007Z,56.89
2017-09-25T11:34:15.970Z,56.89
2017-09-25T11:38:18.600Z,56.85
2017-09-25T11:42:21.525Z,56.84
2017-09-25T11:46:24.154Z,56.81
2017-09-25T11:50:27.138Z,56.82
2017-09-25T11:54:29.833Z,56.89
2017-09-25T11:58:32.836Z,56.86
2017-09-25T12:02:35.458Z,56.72
2017-09-25T12:06:38.462Z,56.66
2017-09-25T12:10:41.185Z,56.50
2017-09-25T12:14:44.142Z,56.38
2017-09-25T12:18:46.772Z,56.35
2017-09-25T12:22:49.777Z,56.59
2017-09-25T12:26:52.391Z,56.57
2017-09-25T12:30:55.361Z,56.57
2017-09-25T12:34:57.983Z,56.69
2017-09-25T12:39:00.957Z,56.59
2017-09-25T12:43:03.592Z,56.32
2017-09-25T12:47:06.545Z,56.89
2017-09-25T12:51:09.163Z,56.54
2017-09-25T12:55:12.103Z,56.50
2017-09-25T12:59:14.723Z,56.73
2017-09-25T13:03:17.637Z,56.86
2017-09-25T13:07:20.262Z,56.69
2017-09-25T13:11:23.175Z,56.74
2017-09-25T13:15:25.803Z,56.80
2017-09-25T13:19:28.755Z,56.45
2017-09-25T13:23:31.423Z,56.97
2017-09-25T13:40:03.616Z,56.34
2017-09-25T13:44:07.096Z,56.89
2017-09-25T13:48:11.631Z,57.06
2017-09-25T13:52:15.871Z,56.95
2017-09-25T13:56:19.676Z,56.98
2017-09-25T14:04:32.218Z,57.03
2017-09-25T14:08:35.689Z,57.06
2017-09-25T14:12:39.463Z,57.02
2017-09-25T14:16:42.926Z,57.02
2017-09-25T14:20:47.488Z,57.42
2017-09-25T14:24:50.965Z,57.39
2017-09-25T14:28:54.706Z,57.44
2017-09-25T14:32:58.178Z,57.23
2017-09-25T14:37:02.032Z,57.48
2017-09-25T14:41:05.488Z,57.52
2017-09-25T14:47:50.834Z,57.68
2017-09-25T14:51:54.292Z,57.47
2017-09-25T14:55:58.052Z,57.48
2017-09-25T15:00:01.524Z,57.58
2017-09-25T15:04:05.368Z,57.43
2017-09-25T15:08:09.726Z,57.49
2017-09-25T15:12:13.520Z,57.52
2017-09-25T15:16:16.975Z,57.53
2017-09-25T15:20:20.738Z,57.51
2017-09-25T15:24:24.981Z,57.41
2017-09-25T15:28:28.783Z,57.39
2017-09-25T15:32:32.342Z,57.49
2017-09-25T15:36:36.108Z,57.42
2017-09-25T15:40:39.603Z,57.47
2017-09-25T15:44:44.344Z,57.40
2017-09-25T15:48:48.574Z,57.50
2017-09-25T15:52:53.142Z,57.34
2017-09-25T15:56:56.607Z,57.35
2017-09-25T16:01:01.143Z,57.36
2017-09-25T16:05:05.368Z,57.38
2017-09-25T16:09:10.004Z,57.40
2017-09-25T16:13:14.231Z,57.43
2017-09-25T16:17:18.039Z,57.43
2017-09-25T16:21:22.260Z,57.44
2017-09-25T16:25:26.858Z,57.46
2017-09-25T16:29:30.322Z,57.47
2017-09-25T16:33:34.122Z,57.49
2017-09-25T16:37:38.376Z,57.49
2017-09-25T16:41:42.107Z,57.53
2017-09-25T16:45:45.562Z,57.55
2017-09-25T16:49:50.217Z,57.57
2017-09-25T16:53:53.675Z,57.58
2017-09-25T16:57:57.439Z,57.61
2017-09-25T17:02:00.891Z,57.64
2017-09-25T17:06:04.635Z,57.66
2017-09-25T17:10:08.875Z,57.67
2017-09-25T17:14:12.791Z,57.69
2017-09-25T17:18:17.014Z,57.73
2017-09-25T17:22:21.543Z,57.72
2017-09-25T17:26:25.775Z,57.73
2017-09-25T17:30:29.592Z,57.71
2017-09-25T17:34:33.084Z,57.71
2017-09-25T17:38:37.622Z,57.71
2017-09-25T17:42:41.852Z,57.70
2017-09-25T17:46:46.468Z,57.72
2017-09-25T17:50:50.035Z,57.69
2017-09-25T17:54:53.791Z,57.71
2017-09-25T17:58:57.244Z,57.70
2017-09-25T18:03:01.034Z,57.69
2017-09-25T18:07:04.495Z,57.68
2017-09-25T18:11:08.255Z,57.64
2017-09-25T18:15:12.508Z,57.64
2017-09-25T18:19:16.294Z,57.64
2017-09-25T18:23:22.214Z,57.63
2017-09-25T18:27:25.984Z,57.62
2017-09-25T18:31:29.514Z,57.62
2017-09-25T18:35:33.255Z,57.61
2017-09-25T18:39:36.732Z,57.58
2017-09-25T18:43:40.515Z,57.58
2017-09-25T18:47:44.809Z,57.58
2017-09-25T18:51:48.670Z,57.57
2017-09-25T18:55:52.136Z,57.56
2017-09-25T18:59:55.987Z,57.56
2017-09-25T19:03:59.532Z,57.56
2017-09-25T19:08:03.426Z,57.56
2017-09-25T19:12:06.913Z,57.56
2017-09-25T19:16:11.557Z,57.54
2017-09-25T19:20:15.026Z,57.54
2017-09-25T19:24:18.876Z,57.55
2017-09-25T19:28:23.119Z,57.52
2017-09-25T19:32:26.936Z,57.52
2017-09-25T19:36:30.395Z,57.53
2017-09-25T19:40:34.213Z,57.52
2017-09-25T19:44:37.715Z,57.51
2017-09-25T19:53:26.635Z,57.51
2017-09-25T19:57:33.513Z,57.50
2017-09-25T20:01:37.748Z,57.51
2017-09-25T20:05:42.251Z,57.52
2017-09-25T20:09:45.785Z,57.50
2017-09-25T20:13:53.046Z,57.50
2017-09-25T20:17:58.346Z,57.50
2017-09-25T20:22:02.168Z,57.47
2017-09-25T20:26:05.635Z,57.48
2017-09-25T20:30:09.478Z,57.47
2017-09-25T20:34:13.713Z,57.46
2017-09-25T20:38:18.245Z,57.45
2017-09-25T20:42:25.206Z,57.43
2017-09-25T20:46:29.044Z,57.44
2017-09-25T20:50:33.268Z,57.45
2017-09-25T20:54:37.801Z,57.47
2017-09-25T20:58:41.263Z,57.47
2017-09-25T21:02:45.123Z,57.46
2017-09-25T21:06:49.338Z,57.46
2017-09-25T21:10:53.884Z,57.46
2017-09-25T21:14:58.131Z,57.47
2017-09-25T21:19:01.936Z,57.47
2017-09-25T21:23:05.504Z,57.46
2017-09-25T21:27:15.641Z,57.45
2017-09-25T21:31:19.100Z,57.34
2017-09-25T21:35:23.650Z,57.27
2017-09-25T21:39:27.103Z,57.34
2017-09-25T21:43:30.963Z,57.34
2017-09-25T21:47:34.431Z,57.33
2017-09-25T21:51:38.281Z,57.34
2017-09-25T21:55:42.504Z,57.35
2017-09-25T21:59:47.039Z,57.36
2017-09-25T22:03:51.263Z,57.37
2017-09-25T22:07:56.204Z,57.37
2017-09-25T22:12:00.431Z,57.36
2017-09-25T22:16:04.963Z,57.36
2017-09-25T22:20:09.252Z,57.36
2017-09-25T22:24:13.104Z,57.37
2017-09-25T22:28:17.318Z,57.37
2017-09-25T22:32:21.895Z,57.36
2017-09-25T22:36:25.358Z,57.34
2017-09-25T22:40:30.221Z,57.36
2017-09-25T22:44:35.586Z,57.34
2017-09-25T22:48:39.374Z,57.33
2017-09-25T22:52:43.591Z,57.34
2017-09-25T22:56:48.266Z,57.33
2017-09-25T23:00:51.726Z,57.34
2017-09-25T23:09:36.077Z,57.32
2017-09-25T23:13:39.879Z,57.32
2017-09-25T23:17:43.335Z,57.33
2017-09-25T23:21:47.172Z,57.32
2017-09-25T23:25:51.397Z,57.33
2017-09-25T23:29:58.284Z,57.33
2017-09-25T23:34:02.523Z,57.33
2017-09-25T23:38:06.323Z,57.33
2017-09-25T23:42:10.570Z,57.32
2017-09-25T23:46:14.491Z,57.33
2017-09-25T23:50:17.956Z,57.32
2017-09-25T23:54:21.786Z,57.33
2017-09-25T23:58:26.021Z,57.33
